sensor_id;sensor_type;location;lat;lon;timestamp;P1;durP1;ratioP1;P2;durP2;ratioP2
16813;SDS011;8524;57.650;11.926;2023-04-03T00:00:41;2.53;;;1.40;;
16813;SDS011;8524;57.650;11.926;2023-04-03T00:03:08;4.57;;;1.57;;
16813;SDS011;8524;57.650;11.926;2023-04-03T00:05:35;2.73;;;1.50;;
16813;SDS011;8524;57.650;11.926;2023-04-03T00:08:03;2.63;;;1.60;;
16813;SDS011;8524;57.650;11.926;2023-04-03T00:10:33;2.30;;;1.60;;
16813;SDS011;8524;57.650;11.926;2023-04-03T00:13:00;2.40;;;1.33;;
16813;SDS011;8524;57.650;11.926;2023-04-03T00:15:27;4.17;;;1.60;;
16813;SDS011;8524;57.650;11.926;2023-04-03T00:17:54;2.57;;;1.40;;
16813;SDS011;8524;57.650;11.926;2023-04-03T00:20:22;3.10;;;1.60;;
16813;SDS011;8524;57.650;11.926;2023-04-03T00:22:49;4.17;;;1.53;;
16813;SDS011;8524;57.650;11.926;2023-04-03T00:25:18;2.67;;;1.33;;
16813;SDS011;8524;57.650;11.926;2023-04-03T00:27:45;2.17;;;1.27;;
16813;SDS011;8524;57.650;11.926;2023-04-03T00:30:14;6.07;;;1.47;;
16813;SDS011;8524;57.650;11.926;2023-04-03T00:32:42;4.67;;;1.57;;
16813;SDS011;8524;57.650;11.926;2023-04-03T00:35:09;2.63;;;1.23;;
16813;SDS011;8524;57.650;11.926;2023-04-03T00:37:36;2.23;;;1.30;;
16813;SDS011;8524;57.650;11.926;2023-04-03T00:40:04;2.43;;;1.20;;
16813;SDS011;8524;57.650;11.926;2023-04-03T00:42:35;2.00;;;1.20;;
16813;SDS011;8524;57.650;11.926;2023-04-03T00:47:59;1.90;;;1.07;;
16813;SDS011;8524;57.650;11.926;2023-04-03T00:50:30;2.40;;;1.33;;
16813;SDS011;8524;57.650;11.926;2023-04-03T00:53:01;2.80;;;1.50;;
16813;SDS011;8524;57.650;11.926;2023-04-03T00:55:29;2.40;;;1.10;;
16813;SDS011;8524;57.650;11.926;2023-04-03T00:57:59;2.70;;;1.30;;
16813;SDS011;8524;57.650;11.926;2023-04-03T01:00:27;1.77;;;1.00;;
16813;SDS011;8524;57.650;11.926;2023-04-03T01:02:54;1.57;;;1.10;;
16813;SDS011;8524;57.650;11.926;2023-04-03T01:05:22;1.17;;;1.00;;
16813;SDS011;8524;57.650;11.926;2023-04-03T01:07:49;2.23;;;1.00;;
16813;SDS011;8524;57.650;11.926;2023-04-03T01:10:18;2.47;;;1.00;;
16813;SDS011;8524;57.650;11.926;2023-04-03T01:12:47;1.67;;;1.00;;
16813;SDS011;8524;57.650;11.926;2023-04-03T01:15:18;1.97;;;0.87;;
16813;SDS011;8524;57.650;11.926;2023-04-03T01:17:48;3.03;;;1.23;;
16813;SDS011;8524;57.650;11.926;2023-04-03T01:20:36;1.33;;;1.00;;
16813;SDS011;8524;57.650;11.926;2023-04-03T01:23:27;1.33;;;1.10;;
16813;SDS011;8524;57.650;11.926;2023-04-03T01:26:08;1.13;;;0.90;;
16813;SDS011;8524;57.650;11.926;2023-04-03T01:28:37;1.97;;;1.20;;
16813;SDS011;8524;57.650;11.926;2023-04-03T01:31:13;1.63;;;1.20;;
16813;SDS011;8524;57.650;11.926;2023-04-03T01:33:47;0.77;;;0.77;;
16813;SDS011;8524;57.650;11.926;2023-04-03T01:36:16;1.80;;;1.03;;
16813;SDS011;8524;57.650;11.926;2023-04-03T01:38:45;2.87;;;1.03;;
16813;SDS011;8524;57.650;11.926;2023-04-03T01:41:13;1.57;;;0.90;;
16813;SDS011;8524;57.650;11.926;2023-04-03T01:43:40;0.97;;;0.97;;
16813;SDS011;8524;57.650;11.926;2023-04-03T01:46:07;0.93;;;0.83;;
16813;SDS011;8524;57.650;11.926;2023-04-03T01:48:34;1.77;;;1.00;;
16813;SDS011;8524;57.650;11.926;2023-04-03T01:51:03;1.40;;;1.00;;
16813;SDS011;8524;57.650;11.926;2023-04-03T01:53:30;0.93;;;0.87;;
16813;SDS011;8524;57.650;11.926;2023-04-03T01:55:58;1.67;;;0.80;;
16813;SDS011;8524;57.650;11.926;2023-04-03T01:58:25;1.30;;;0.87;;
16813;SDS011;8524;57.650;11.926;2023-04-03T02:00:52;2.37;;;0.93;;
16813;SDS011;8524;57.650;11.926;2023-04-03T02:03:20;1.40;;;0.97;;
16813;SDS011;8524;57.650;11.926;2023-04-03T02:05:47;1.73;;;0.87;;
16813;SDS011;8524;57.650;11.926;2023-04-03T02:08:15;0.90;;;0.77;;
16813;SDS011;8524;57.650;11.926;2023-04-03T02:10:43;1.27;;;0.93;;
16813;SDS011;8524;57.650;11.926;2023-04-03T02:13:12;1.43;;;0.90;;
16813;SDS011;8524;57.650;11.926;2023-04-03T02:15:40;1.57;;;1.00;;
16813;SDS011;8524;57.650;11.926;2023-04-03T02:18:07;1.20;;;1.00;;
16813;SDS011;8524;57.650;11.926;2023-04-03T02:20:34;2.33;;;1.10;;
16813;SDS011;8524;57.650;11.926;2023-04-03T02:23:01;1.67;;;0.97;;
16813;SDS011;8524;57.650;11.926;2023-04-03T02:25:31;0.87;;;0.80;;
16813;SDS011;8524;57.650;11.926;2023-04-03T02:27:59;2.17;;;0.90;;
16813;SDS011;8524;57.650;11.926;2023-04-03T02:30:26;0.90;;;0.80;;
16813;SDS011;8524;57.650;11.926;2023-04-03T02:32:53;1.97;;;1.10;;
16813;SDS011;8524;57.650;11.926;2023-04-03T02:35:21;1.10;;;0.90;;
16813;SDS011;8524;57.650;11.926;2023-04-03T02:37:48;2.00;;;0.87;;
16813;SDS011;8524;57.650;11.926;2023-04-03T02:40:16;0.80;;;0.67;;
16813;SDS011;8524;57.650;11.926;2023-04-03T02:42:45;3.13;;;1.00;;
16813;SDS011;8524;57.650;11.926;2023-04-03T02:45:12;1.47;;;1.07;;
16813;SDS011;8524;57.650;11.926;2023-04-03T02:47:40;1.03;;;0.80;;
16813;SDS011;8524;57.650;11.926;2023-04-03T02:50:10;0.80;;;0.80;;
16813;SDS011;8524;57.650;11.926;2023-04-03T02:52:37;1.53;;;0.80;;
16813;SDS011;8524;57.650;11.926;2023-04-03T02:55:05;1.70;;;0.83;;
16813;SDS011;8524;57.650;11.926;2023-04-03T02:57:33;2.37;;;1.13;;
16813;SDS011;8524;57.650;11.926;2023-04-03T03:00:01;1.33;;;1.10;;
16813;SDS011;8524;57.650;11.926;2023-04-03T03:02:29;2.93;;;1.37;;
16813;SDS011;8524;57.650;11.926;2023-04-03T03:04:56;2.10;;;1.10;;
16813;SDS011;8524;57.650;11.926;2023-04-03T03:07:23;1.00;;;0.90;;
16813;SDS011;8524;57.650;11.926;2023-04-03T03:09:51;0.87;;;0.87;;
16813;SDS011;8524;57.650;11.926;2023-04-03T03:12:18;1.43;;;0.80;;
16813;SDS011;8524;57.650;11.926;2023-04-03T03:14:46;2.97;;;1.20;;
16813;SDS011;8524;57.650;11.926;2023-04-03T03:17:15;2.23;;;0.90;;
16813;SDS011;8524;57.650;11.926;2023-04-03T03:19:42;2.30;;;1.03;;
16813;SDS011;8524;57.650;11.926;2023-04-03T03:22:10;1.07;;;0.73;;
16813;SDS011;8524;57.650;11.926;2023-04-03T03:24:37;1.13;;;0.80;;
16813;SDS011;8524;57.650;11.926;2023-04-03T03:27:04;1.30;;;1.00;;
16813;SDS011;8524;57.650;11.926;2023-04-03T03:29:31;1.77;;;1.00;;
16813;SDS011;8524;57.650;11.926;2023-04-03T03:31:58;2.33;;;1.07;;
16813;SDS011;8524;57.650;11.926;2023-04-03T03:34:27;1.63;;;1.10;;
16813;SDS011;8524;57.650;11.926;2023-04-03T03:36:54;1.03;;;0.93;;
16813;SDS011;8524;57.650;11.926;2023-04-03T03:39:21;3.30;;;0.83;;
16813;SDS011;8524;57.650;11.926;2023-04-03T03:41:48;1.07;;;0.80;;
16813;SDS011;8524;57.650;11.926;2023-04-03T03:44:15;0.90;;;0.90;;
16813;SDS011;8524;57.650;11.926;2023-04-03T03:46:43;2.47;;;1.20;;
16813;SDS011;8524;57.650;11.926;2023-04-03T03:49:10;1.47;;;0.80;;
16813;SDS011;8524;57.650;11.926;2023-04-03T03:51:40;2.10;;;1.07;;
16813;SDS011;8524;57.650;11.926;2023-04-03T03:54:07;3.00;;;1.03;;
16813;SDS011;8524;57.650;11.926;2023-04-03T03:56:34;1.67;;;0.87;;
16813;SDS011;8524;57.650;11.926;2023-04-03T03:59:01;2.63;;;1.10;;
16813;SDS011;8524;57.650;11.926;2023-04-03T04:01:28;2.93;;;1.00;;
16813;SDS011;8524;57.650;11.926;2023-04-03T04:03:55;1.90;;;1.40;;
16813;SDS011;8524;57.650;11.926;2023-04-03T04:06:22;3.60;;;1.43;;
16813;SDS011;8524;57.650;11.926;2023-04-03T04:08:51;1.40;;;1.00;;
16813;SDS011;8524;57.650;11.926;2023-04-03T04:11:18;1.30;;;1.13;;
16813;SDS011;8524;57.650;11.926;2023-04-03T04:13:47;1.67;;;1.10;;
16813;SDS011;8524;57.650;11.926;2023-04-03T04:16:14;2.43;;;1.30;;
16813;SDS011;8524;57.650;11.926;2023-04-03T04:18:41;2.20;;;0.90;;
16813;SDS011;8524;57.650;11.926;2023-04-03T04:21:08;1.77;;;1.17;;
16813;SDS011;8524;57.650;11.926;2023-04-03T04:23:35;3.23;;;0.90;;
16813;SDS011;8524;57.650;11.926;2023-04-03T04:26:04;1.50;;;1.00;;
16813;SDS011;8524;57.650;11.926;2023-04-03T04:28:30;1.90;;;1.00;;
16813;SDS011;8524;57.650;11.926;2023-04-03T04:30:57;1.50;;;1.00;;
16813;SDS011;8524;57.650;11.926;2023-04-03T04:33:24;3.00;;;0.93;;
16813;SDS011;8524;57.650;11.926;2023-04-03T04:35:52;1.20;;;1.00;;
16813;SDS011;8524;57.650;11.926;2023-04-03T04:38:19;5.03;;;1.30;;
16813;SDS011;8524;57.650;11.926;2023-04-03T04:40:46;2.50;;;0.90;;
16813;SDS011;8524;57.650;11.926;2023-04-03T04:43:16;2.30;;;1.10;;
16813;SDS011;8524;57.650;11.926;2023-04-03T04:45:43;3.50;;;0.97;;
16813;SDS011;8524;57.650;11.926;2023-04-03T04:48:10;3.20;;;1.40;;
16813;SDS011;8524;57.650;11.926;2023-04-03T04:50:37;4.03;;;1.40;;
16813;SDS011;8524;57.650;11.926;2023-04-03T04:53:04;2.63;;;1.20;;
16813;SDS011;8524;57.650;11.926;2023-04-03T04:55:31;3.50;;;1.10;;
16813;SDS011;8524;57.650;11.926;2023-04-03T04:58:00;3.40;;;1.30;;
16813;SDS011;8524;57.650;11.926;2023-04-03T05:00:29;1.90;;;1.23;;
16813;SDS011;8524;57.650;11.926;2023-04-03T05:02:56;2.80;;;1.17;;
16813;SDS011;8524;57.650;11.926;2023-04-03T05:05:23;4.47;;;1.37;;
16813;SDS011;8524;57.650;11.926;2023-04-03T05:07:50;4.63;;;1.50;;
16813;SDS011;8524;57.650;11.926;2023-04-03T05:10:17;4.80;;;1.90;;
16813;SDS011;8524;57.650;11.926;2023-04-03T05:12:44;4.27;;;1.50;;
16813;SDS011;8524;57.650;11.926;2023-04-03T05:15:11;8.23;;;2.07;;
16813;SDS011;8524;57.650;11.926;2023-04-03T05:17:40;6.97;;;1.80;;
16813;SDS011;8524;57.650;11.926;2023-04-03T05:20:07;7.83;;;2.30;;
16813;SDS011;8524;57.650;11.926;2023-04-03T05:22:35;7.67;;;2.03;;
16813;SDS011;8524;57.650;11.926;2023-04-03T05:25:03;9.33;;;2.13;;
16813;SDS011;8524;57.650;11.926;2023-04-03T05:27:31;7.30;;;2.07;;
16813;SDS011;8524;57.650;11.926;2023-04-03T05:29:58;10.43;;;2.00;;
16813;SDS011;8524;57.650;11.926;2023-04-03T05:32:25;6.87;;;1.50;;
16813;SDS011;8524;57.650;11.926;2023-04-03T05:34:54;6.37;;;1.50;;
16813;SDS011;8524;57.650;11.926;2023-04-03T05:37:21;8.93;;;2.20;;
16813;SDS011;8524;57.650;11.926;2023-04-03T05:39:48;4.27;;;1.50;;
16813;SDS011;8524;57.650;11.926;2023-04-03T05:42:15;10.80;;;2.37;;
16813;SDS011;8524;57.650;11.926;2023-04-03T05:44:42;7.73;;;2.37;;
16813;SDS011;8524;57.650;11.926;2023-04-03T05:47:11;12.10;;;2.20;;
16813;SDS011;8524;57.650;11.926;2023-04-03T05:49:39;8.70;;;2.73;;
16813;SDS011;8524;57.650;11.926;2023-04-03T05:52:17;12.97;;;2.30;;
16813;SDS011;8524;57.650;11.926;2023-04-03T05:54:47;6.37;;;2.47;;
16813;SDS011;8524;57.650;11.926;2023-04-03T05:57:14;9.13;;;2.63;;
16813;SDS011;8524;57.650;11.926;2023-04-03T05:59:42;6.70;;;2.03;;
16813;SDS011;8524;57.650;11.926;2023-04-03T06:02:10;9.97;;;2.47;;
16813;SDS011;8524;57.650;11.926;2023-04-03T06:04:38;8.90;;;2.37;;
16813;SDS011;8524;57.650;11.926;2023-04-03T06:07:06;7.83;;;2.10;;
16813;SDS011;8524;57.650;11.926;2023-04-03T06:09:37;10.93;;;1.73;;
16813;SDS011;8524;57.650;11.926;2023-04-03T06:12:05;8.97;;;2.00;;
16813;SDS011;8524;57.650;11.926;2023-04-03T06:14:32;6.57;;;1.67;;
16813;SDS011;8524;57.650;11.926;2023-04-03T06:17:01;7.30;;;2.23;;
16813;SDS011;8524;57.650;11.926;2023-04-03T06:19:29;3.80;;;1.67;;
16813;SDS011;8524;57.650;11.926;2023-04-03T06:21:57;7.23;;;1.57;;
16813;SDS011;8524;57.650;11.926;2023-04-03T06:24:25;9.67;;;2.10;;
16813;SDS011;8524;57.650;11.926;2023-04-03T06:26:53;4.17;;;1.37;;
16813;SDS011;8524;57.650;11.926;2023-04-03T06:29:20;3.80;;;1.67;;
16813;SDS011;8524;57.650;11.926;2023-04-03T06:31:48;3.67;;;2.03;;
16813;SDS011;8524;57.650;11.926;2023-04-03T06:34:16;4.53;;;2.07;;
16813;SDS011;8524;57.650;11.926;2023-04-03T06:36:43;8.07;;;2.10;;
16813;SDS011;8524;57.650;11.926;2023-04-03T06:39:11;9.93;;;2.80;;
16813;SDS011;8524;57.650;11.926;2023-04-03T06:41:42;3.80;;;1.90;;
16813;SDS011;8524;57.650;11.926;2023-04-03T06:44:13;4.27;;;1.80;;
16813;SDS011;8524;57.650;11.926;2023-04-03T06:46:41;4.07;;;1.87;;
16813;SDS011;8524;57.650;11.926;2023-04-03T06:49:08;6.67;;;2.23;;
16813;SDS011;8524;57.650;11.926;2023-04-03T06:51:36;4.17;;;1.47;;
16813;SDS011;8524;57.650;11.926;2023-04-03T06:54:09;4.27;;;1.70;;
16813;SDS011;8524;57.650;11.926;2023-04-03T06:56:36;5.10;;;1.73;;
16813;SDS011;8524;57.650;11.926;2023-04-03T06:59:05;2.80;;;1.70;;
16813;SDS011;8524;57.650;11.926;2023-04-03T07:01:32;4.40;;;1.33;;
16813;SDS011;8524;57.650;11.926;2023-04-03T07:03:59;1.20;;;1.10;;
16813;SDS011;8524;57.650;11.926;2023-04-03T07:06:26;2.97;;;1.50;;
16813;SDS011;8524;57.650;11.926;2023-04-03T07:08:54;3.53;;;1.58;;
16813;SDS011;8524;57.650;11.926;2023-04-03T07:11:21;2.47;;;1.23;;
16813;SDS011;8524;57.650;11.926;2023-04-03T07:13:49;1.40;;;1.00;;
16813;SDS011;8524;57.650;11.926;2023-04-03T07:16:21;2.53;;;1.33;;
16813;SDS011;8524;57.650;11.926;2023-04-03T07:18:48;4.10;;;1.20;;
16813;SDS011;8524;57.650;11.926;2023-04-03T07:21:16;3.03;;;1.07;;
16813;SDS011;8524;57.650;11.926;2023-04-03T07:23:45;2.83;;;1.50;;
16813;SDS011;8524;57.650;11.926;2023-04-03T07:26:12;2.73;;;1.23;;
16813;SDS011;8524;57.650;11.926;2023-04-03T07:28:39;3.50;;;1.13;;
16813;SDS011;8524;57.650;11.926;2023-04-03T07:31:07;2.80;;;1.03;;
16813;SDS011;8524;57.650;11.926;2023-04-03T07:33:40;3.70;;;1.13;;
16813;SDS011;8524;57.650;11.926;2023-04-03T07:36:08;2.93;;;1.47;;
16813;SDS011;8524;57.650;11.926;2023-04-03T07:38:36;2.57;;;1.30;;
16813;SDS011;8524;57.650;11.926;2023-04-03T07:41:04;1.80;;;0.90;;
16813;SDS011;8524;57.650;11.926;2023-04-03T07:43:31;2.77;;;0.97;;
16813;SDS011;8524;57.650;11.926;2023-04-03T07:45:59;1.87;;;1.30;;
16813;SDS011;8524;57.650;11.926;2023-04-03T07:48:26;2.97;;;1.33;;
16813;SDS011;8524;57.650;11.926;2023-04-03T07:50:58;2.30;;;0.97;;
16813;SDS011;8524;57.650;11.926;2023-04-03T07:53:26;3.73;;;1.30;;
16813;SDS011;8524;57.650;11.926;2023-04-03T07:55:57;1.70;;;1.00;;
16813;SDS011;8524;57.650;11.926;2023-04-03T07:58:24;1.40;;;1.00;;
16813;SDS011;8524;57.650;11.926;2023-04-03T08:00:52;2.47;;;1.20;;
16813;SDS011;8524;57.650;11.926;2023-04-03T08:03:22;2.63;;;1.30;;
16813;SDS011;8524;57.650;11.926;2023-04-03T08:05:50;1.10;;;1.00;;
16813;SDS011;8524;57.650;11.926;2023-04-03T08:08:20;3.40;;;1.30;;
16813;SDS011;8524;57.650;11.926;2023-04-03T08:10:49;1.20;;;1.10;;
16813;SDS011;8524;57.650;11.926;2023-04-03T08:13:17;1.53;;;1.10;;
16813;SDS011;8524;57.650;11.926;2023-04-03T08:15:44;1.10;;;1.00;;
16813;SDS011;8524;57.650;11.926;2023-04-03T08:18:12;2.70;;;1.10;;
16813;SDS011;8524;57.650;11.926;2023-04-03T08:20:39;1.47;;;1.07;;
16813;SDS011;8524;57.650;11.926;2023-04-03T08:23:07;1.97;;;1.17;;
16813;SDS011;8524;57.650;11.926;2023-04-03T08:25:39;1.00;;;0.97;;
16813;SDS011;8524;57.650;11.926;2023-04-03T08:28:07;2.33;;;1.10;;
16813;SDS011;8524;57.650;11.926;2023-04-03T08:30:34;3.13;;;1.10;;
16813;SDS011;8524;57.650;11.926;2023-04-03T08:33:09;1.67;;;0.90;;
16813;SDS011;8524;57.650;11.926;2023-04-03T08:35:39;1.80;;;1.10;;
16813;SDS011;8524;57.650;11.926;2023-04-03T08:38:06;1.47;;;0.93;;
16813;SDS011;8524;57.650;11.926;2023-04-03T08:40:34;1.70;;;0.93;;
16813;SDS011;8524;57.650;11.926;2023-04-03T08:43:06;2.30;;;1.20;;
16813;SDS011;8524;57.650;11.926;2023-04-03T08:45:47;2.80;;;1.23;;
16813;SDS011;8524;57.650;11.926;2023-04-03T08:48:17;1.87;;;1.10;;
16813;SDS011;8524;57.650;11.926;2023-04-03T08:50:51;1.53;;;1.43;;
16813;SDS011;8524;57.650;11.926;2023-04-03T08:53:20;2.00;;;1.23;;
16813;SDS011;8524;57.650;11.926;2023-04-03T08:55:51;1.77;;;1.00;;
16813;SDS011;8524;57.650;11.926;2023-04-03T08:58:22;1.30;;;1.00;;
16813;SDS011;8524;57.650;11.926;2023-04-03T09:00:54;2.03;;;1.00;;
16813;SDS011;8524;57.650;11.926;2023-04-03T09:03:32;1.60;;;1.10;;
16813;SDS011;8524;57.650;11.926;2023-04-03T09:06:20;8.73;;;1.40;;
16813;SDS011;8524;57.650;11.926;2023-04-03T09:08:51;1.47;;;0.87;;
16813;SDS011;8524;57.650;11.926;2023-04-03T09:11:33;4.73;;;1.30;;
16813;SDS011;8524;57.650;11.926;2023-04-03T09:14:17;2.78;;;1.25;;
16813;SDS011;8524;57.650;11.926;2023-04-03T09:16:53;2.90;;;1.30;;
16813;SDS011;8524;57.650;11.926;2023-04-03T09:19:25;2.13;;;1.13;;
16813;SDS011;8524;57.650;11.926;2023-04-03T09:22:03;2.57;;;1.37;;
16813;SDS011;8524;57.650;11.926;2023-04-03T09:24:52;3.60;;;1.30;;
16813;SDS011;8524;57.650;11.926;2023-04-03T09:27:24;2.90;;;1.20;;
16813;SDS011;8524;57.650;11.926;2023-04-03T09:29:54;4.53;;;1.57;;
16813;SDS011;8524;57.650;11.926;2023-04-03T09:32:25;2.70;;;1.60;;
16813;SDS011;8524;57.650;11.926;2023-04-03T09:34:54;3.73;;;1.50;;
16813;SDS011;8524;57.650;11.926;2023-04-03T09:37:35;1.83;;;1.40;;
16813;SDS011;8524;57.650;11.926;2023-04-03T09:40:27;5.80;;;1.60;;
16813;SDS011;8524;57.650;11.926;2023-04-03T09:43:01;6.00;;;1.93;;
16813;SDS011;8524;57.650;11.926;2023-04-03T09:45:50;1.60;;;0.83;;
16813;SDS011;8524;57.650;11.926;2023-04-03T09:48:21;1.90;;;0.70;;
16813;SDS011;8524;57.650;11.926;2023-04-03T09:50:59;2.43;;;1.07;;
16813;SDS011;8524;57.650;11.926;2023-04-03T09:53:29;1.13;;;1.00;;
16813;SDS011;8524;57.650;11.926;2023-04-03T09:56:00;0.93;;;0.80;;
16813;SDS011;8524;57.650;11.926;2023-04-03T09:58:31;2.13;;;0.80;;
16813;SDS011;8524;57.650;11.926;2023-04-03T10:01:03;1.57;;;0.90;;
16813;SDS011;8524;57.650;11.926;2023-04-03T10:03:31;2.37;;;1.00;;
16813;SDS011;8524;57.650;11.926;2023-04-03T10:06:03;1.73;;;0.90;;
16813;SDS011;8524;57.650;11.926;2023-04-03T10:08:48;2.50;;;0.90;;
16813;SDS011;8524;57.650;11.926;2023-04-03T10:11:26;2.00;;;0.90;;
16813;SDS011;8524;57.650;11.926;2023-04-03T10:13:55;2.07;;;1.20;;
16813;SDS011;8524;57.650;11.926;2023-04-03T10:16:27;1.10;;;1.00;;
16813;SDS011;8524;57.650;11.926;2023-04-03T10:21:59;1.53;;;1.00;;
16813;SDS011;8524;57.650;11.926;2023-04-03T10:24:36;1.07;;;0.73;;
16813;SDS011;8524;57.650;11.926;2023-04-03T10:27:10;3.50;;;1.20;;
16813;SDS011;8524;57.650;11.926;2023-04-03T10:29:48;2.27;;;1.10;;
16813;SDS011;8524;57.650;11.926;2023-04-03T10:32:31;1.00;;;0.90;;
16813;SDS011;8524;57.650;11.926;2023-04-03T10:35:16;2.03;;;0.80;;
16813;SDS011;8524;57.650;11.926;2023-04-03T10:38:01;1.40;;;0.90;;
16813;SDS011;8524;57.650;11.926;2023-04-03T10:40:44;3.13;;;1.13;;
16813;SDS011;8524;57.650;11.926;2023-04-03T10:43:21;2.33;;;0.90;;
16813;SDS011;8524;57.650;11.926;2023-04-03T10:46:04;3.53;;;1.20;;
16813;SDS011;8524;57.650;11.926;2023-04-03T10:48:46;2.57;;;1.20;;
16813;SDS011;8524;57.650;11.926;2023-04-03T10:51:25;0.90;;;0.90;;
16813;SDS011;8524;57.650;11.926;2023-04-03T10:54:00;1.57;;;0.90;;
16813;SDS011;8524;57.650;11.926;2023-04-03T10:56:39;3.47;;;1.40;;
16813;SDS011;8524;57.650;11.926;2023-04-03T10:59:18;1.53;;;1.00;;
16813;SDS011;8524;57.650;11.926;2023-04-03T11:01:53;2.43;;;1.10;;
16813;SDS011;8524;57.650;11.926;2023-04-03T11:04:24;3.87;;;1.30;;
16813;SDS011;8524;57.650;11.926;2023-04-03T11:06:59;5.10;;;1.20;;
16813;SDS011;8524;57.650;11.926;2023-04-03T11:09:32;3.20;;;1.10;;
16813;SDS011;8524;57.650;11.926;2023-04-03T11:12:16;5.00;;;1.50;;
16813;SDS011;8524;57.650;11.926;2023-04-03T11:14:48;2.63;;;1.20;;
16813;SDS011;8524;57.650;11.926;2023-04-03T11:17:23;1.10;;;1.00;;
16813;SDS011;8524;57.650;11.926;2023-04-03T11:20:02;2.30;;;1.30;;
16813;SDS011;8524;57.650;11.926;2023-04-03T11:22:36;3.20;;;0.97;;
16813;SDS011;8524;57.650;11.926;2023-04-03T11:25:06;2.53;;;1.30;;
16813;SDS011;8524;57.650;11.926;2023-04-03T11:27:47;5.07;;;1.20;;
16813;SDS011;8524;57.650;11.926;2023-04-03T11:30:18;2.07;;;1.07;;
16813;SDS011;8524;57.650;11.926;2023-04-03T11:32:51;2.40;;;1.10;;
16813;SDS011;8524;57.650;11.926;2023-04-03T11:35:33;3.20;;;1.00;;
16813;SDS011;8524;57.650;11.926;2023-04-03T11:38:02;3.93;;;1.00;;
16813;SDS011;8524;57.650;11.926;2023-04-03T11:40:32;1.97;;;1.00;;
16813;SDS011;8524;57.650;11.926;2023-04-03T11:43:06;3.03;;;1.20;;
16813;SDS011;8524;57.650;11.926;2023-04-03T11:45:50;2.43;;;1.33;;
16813;SDS011;8524;57.650;11.926;2023-04-03T12:09:22;3.47;;;1.10;;
16813;SDS011;8524;57.650;11.926;2023-04-03T12:11:53;2.57;;;0.90;;
16813;SDS011;8524;57.650;11.926;2023-04-03T12:14:30;2.17;;;0.90;;
16813;SDS011;8524;57.650;11.926;2023-04-03T12:17:02;1.20;;;0.80;;
16813;SDS011;8524;57.650;11.926;2023-04-03T12:19:31;1.00;;;0.80;;
16813;SDS011;8524;57.650;11.926;2023-04-03T12:24:47;2.57;;;1.00;;
16813;SDS011;8524;57.650;11.926;2023-04-03T12:27:23;2.20;;;1.00;;
16813;SDS011;8524;57.650;11.926;2023-04-03T12:29:56;1.47;;;1.00;;
16813;SDS011;8524;57.650;11.926;2023-04-03T12:32:49;2.67;;;0.87;;
16813;SDS011;8524;57.650;11.926;2023-04-03T12:35:28;2.80;;;0.80;;
16813;SDS011;8524;57.650;11.926;2023-04-03T12:38:15;1.53;;;0.80;;
16813;SDS011;8524;57.650;11.926;2023-04-03T12:41:03;0.90;;;0.90;;
16813;SDS011;8524;57.650;11.926;2023-04-03T12:43:53;1.53;;;0.83;;
16813;SDS011;8524;57.650;11.926;2023-04-03T12:46:28;1.57;;;0.80;;
16813;SDS011;8524;57.650;11.926;2023-04-03T12:52:05;2.73;;;0.90;;
16813;SDS011;8524;57.650;11.926;2023-04-03T12:54:48;1.30;;;0.80;;
16813;SDS011;8524;57.650;11.926;2023-04-03T12:57:17;1.67;;;1.03;;
16813;SDS011;8524;57.650;11.926;2023-04-03T12:59:48;1.33;;;0.93;;
16813;SDS011;8524;57.650;11.926;2023-04-03T13:02:19;2.53;;;0.90;;
16813;SDS011;8524;57.650;11.926;2023-04-03T13:04:49;2.67;;;0.80;;
16813;SDS011;8524;57.650;11.926;2023-04-03T13:07:23;0.80;;;0.80;;
16813;SDS011;8524;57.650;11.926;2023-04-03T13:09:57;2.87;;;0.90;;
16813;SDS011;8524;57.650;11.926;2023-04-03T13:12:29;1.70;;;0.90;;
16813;SDS011;8524;57.650;11.926;2023-04-03T13:15:11;0.97;;;0.80;;
16813;SDS011;8524;57.650;11.926;2023-04-03T13:17:51;1.53;;;0.60;;
16813;SDS011;8524;57.650;11.926;2023-04-03T13:20:23;1.13;;;0.83;;
16813;SDS011;8524;57.650;11.926;2023-04-03T13:22:58;1.27;;;0.93;;
16813;SDS011;8524;57.650;11.926;2023-04-03T13:25:32;0.87;;;0.70;;
16813;SDS011;8524;57.650;11.926;2023-04-03T13:28:00;1.87;;;0.90;;
16813;SDS011;8524;57.650;11.926;2023-04-03T13:30:32;2.10;;;0.80;;
16813;SDS011;8524;57.650;11.926;2023-04-03T13:33:02;0.70;;;0.70;;
16813;SDS011;8524;57.650;11.926;2023-04-03T13:35:34;1.23;;;0.90;;
16813;SDS011;8524;57.650;11.926;2023-04-03T13:38:05;1.60;;;0.73;;
16813;SDS011;8524;57.650;11.926;2023-04-03T13:40:48;2.83;;;0.90;;
16813;SDS011;8524;57.650;11.926;2023-04-03T13:43:19;1.53;;;0.83;;
16813;SDS011;8524;57.650;11.926;2023-04-03T13:45:56;2.00;;;1.03;;
16813;SDS011;8524;57.650;11.926;2023-04-03T13:48:35;3.13;;;0.93;;
16813;SDS011;8524;57.650;11.926;2023-04-03T13:51:12;2.20;;;0.90;;
16813;SDS011;8524;57.650;11.926;2023-04-03T13:53:46;1.87;;;1.00;;
16813;SDS011;8524;57.650;11.926;2023-04-03T13:56:19;1.13;;;0.83;;
16813;SDS011;8524;57.650;11.926;2023-04-03T13:58:55;2.07;;;0.90;;
16813;SDS011;8524;57.650;11.926;2023-04-03T14:01:32;2.30;;;0.80;;
16813;SDS011;8524;57.650;11.926;2023-04-03T14:04:09;1.30;;;0.87;;
16813;SDS011;8524;57.650;11.926;2023-04-03T14:06:39;0.80;;;0.73;;
16813;SDS011;8524;57.650;11.926;2023-04-03T14:09:06;1.73;;;0.90;;
16813;SDS011;8524;57.650;11.926;2023-04-03T14:11:33;2.93;;;0.83;;
16813;SDS011;8524;57.650;11.926;2023-04-03T14:14:02;2.00;;;0.90;;
16813;SDS011;8524;57.650;11.926;2023-04-03T14:16:37;2.80;;;0.90;;
16813;SDS011;8524;57.650;11.926;2023-04-03T14:19:07;2.03;;;0.87;;
16813;SDS011;8524;57.650;11.926;2023-04-03T14:21:40;1.90;;;0.83;;
16813;SDS011;8524;57.650;11.926;2023-04-03T14:24:08;1.87;;;0.80;;
16813;SDS011;8524;57.650;11.926;2023-04-03T14:26:36;1.40;;;0.80;;
16813;SDS011;8524;57.650;11.926;2023-04-03T14:29:03;1.20;;;0.90;;
16813;SDS011;8524;57.650;11.926;2023-04-03T14:31:31;1.00;;;0.80;;
16813;SDS011;8524;57.650;11.926;2023-04-03T14:33:59;3.23;;;1.17;;
16813;SDS011;8524;57.650;11.926;2023-04-03T14:36:27;2.13;;;0.90;;
16813;SDS011;8524;57.650;11.926;2023-04-03T14:38:56;1.93;;;0.87;;
16813;SDS011;8524;57.650;11.926;2023-04-03T14:41:26;2.40;;;0.80;;
16813;SDS011;8524;57.650;11.926;2023-04-03T14:43:54;0.90;;;0.80;;
16813;SDS011;8524;57.650;11.926;2023-04-03T14:46:22;2.10;;;1.00;;
16813;SDS011;8524;57.650;11.926;2023-04-03T14:48:53;2.83;;;0.90;;
16813;SDS011;8524;57.650;11.926;2023-04-03T14:51:22;1.67;;;0.80;;
16813;SDS011;8524;57.650;11.926;2023-04-03T14:53:49;3.10;;;0.97;;
16813;SDS011;8524;57.650;11.926;2023-04-03T14:56:18;7.33;;;1.17;;
16813;SDS011;8524;57.650;11.926;2023-04-03T14:58:48;4.83;;;1.03;;
16813;SDS011;8524;57.650;11.926;2023-04-03T15:01:16;2.10;;;1.00;;
16813;SDS011;8524;57.650;11.926;2023-04-03T15:03:44;2.77;;;1.03;;
16813;SDS011;8524;57.650;11.926;2023-04-03T15:06:11;1.50;;;0.90;;
16813;SDS011;8524;57.650;11.926;2023-04-03T15:08:41;1.43;;;0.90;;
16813;SDS011;8524;57.650;11.926;2023-04-03T15:11:09;4.13;;;0.80;;
16813;SDS011;8524;57.650;11.926;2023-04-03T15:13:36;2.27;;;1.00;;
16813;SDS011;8524;57.650;11.926;2023-04-03T15:16:04;1.73;;;0.90;;
16813;SDS011;8524;57.650;11.926;2023-04-03T15:18:33;1.57;;;0.90;;
16813;SDS011;8524;57.650;11.926;2023-04-03T15:21:03;4.00;;;1.20;;
16813;SDS011;8524;57.650;11.926;2023-04-03T15:23:31;2.88;;;1.20;;
16813;SDS011;8524;57.650;11.926;2023-04-03T15:25:59;1.47;;;1.00;;
16813;SDS011;8524;57.650;11.926;2023-04-03T15:28:28;4.30;;;0.93;;
16813;SDS011;8524;57.650;11.926;2023-04-03T15:30:57;2.50;;;0.90;;
16813;SDS011;8524;57.650;11.926;2023-04-03T15:33:24;1.63;;;0.90;;
16813;SDS011;8524;57.650;11.926;2023-04-03T15:35:52;1.95;;;1.10;;
16813;SDS011;8524;57.650;11.926;2023-04-03T15:38:19;2.43;;;1.00;;
16813;SDS011;8524;57.650;11.926;2023-04-03T15:40:46;2.43;;;0.90;;